sensor_id;sensor_type;location;lat;lon;timestamp;P1;durP1;ratioP1;P2;durP2;ratioP2
6739;SDS011;3407;49.882;10.920;2023-03-23T00:02:34;3.53;;;2.70;;
6739;SDS011;3407;49.882;10.920;2023-03-23T00:07:33;3.30;;;3.00;;
6739;SDS011;3407;49.882;10.920;2023-03-23T00:12:30;5.77;;;3.37;;
6739;SDS011;3407;49.882;10.920;2023-03-23T00:17:29;3.93;;;3.30;;
6739;SDS011;3407;49.882;10.920;2023-03-23T00:22:28;5.97;;;3.50;;
6739;SDS011;3407;49.882;10.920;2023-03-23T00:27:23;4.27;;;3.60;;
6739;SDS011;3407;49.882;10.920;2023-03-23T00:32:20;5.17;;;3.43;;
6739;SDS011;3407;49.882;10.920;2023-03-23T00:37:23;3.97;;;3.37;;
6739;SDS011;3407;49.882;10.920;2023-03-23T00:42:19;5.37;;;3.57;;
6739;SDS011;3407;49.882;10.920;2023-03-23T00:47:16;3.63;;;3.33;;
6739;SDS011;3407;49.882;10.920;2023-03-23T00:52:12;7.50;;;3.73;;
6739;SDS011;3407;49.882;10.920;2023-03-23T00:57:07;6.00;;;4.27;;
6739;SDS011;3407;49.882;10.920;2023-03-23T01:02:04;6.07;;;4.50;;
6739;SDS011;3407;49.882;10.920;2023-03-23T01:07:00;4.80;;;4.10;;
6739;SDS011;3407;49.882;10.920;2023-03-23T01:11:55;5.73;;;3.60;;
6739;SDS011;3407;49.882;10.920;2023-03-23T01:16:51;4.33;;;3.20;;
6739;SDS011;3407;49.882;10.920;2023-03-23T01:21:47;8.17;;;3.97;;
6739;SDS011;3407;49.882;10.920;2023-03-23T01:26:42;4.97;;;3.43;;
6739;SDS011;3407;49.882;10.920;2023-03-23T01:31:38;5.80;;;3.73;;
6739;SDS011;3407;49.882;10.920;2023-03-23T01:36:33;3.40;;;3.10;;
6739;SDS011;3407;49.882;10.920;2023-03-23T01:41:30;3.17;;;2.70;;
6739;SDS011;3407;49.882;10.920;2023-03-23T01:46:28;3.50;;;3.20;;
6739;SDS011;3407;49.882;10.920;2023-03-23T01:51:25;3.00;;;2.80;;
6739;SDS011;3407;49.882;10.920;2023-03-23T01:56:23;5.93;;;2.80;;
6739;SDS011;3407;49.882;10.920;2023-03-23T02:01:20;3.00;;;2.57;;
6739;SDS011;3407;49.882;10.920;2023-03-23T02:06:16;5.50;;;2.67;;
6739;SDS011;3407;49.882;10.920;2023-03-23T02:11:19;3.13;;;2.43;;
6739;SDS011;3407;49.882;10.920;2023-03-23T02:21:30;2.67;;;2.47;;
6739;SDS011;3407;49.882;10.920;2023-03-23T02:27:01;2.23;;;1.93;;
6739;SDS011;3407;49.882;10.920;2023-03-23T02:32:16;3.23;;;2.30;;
6739;SDS011;3407;49.882;10.920;2023-03-23T02:37:24;3.60;;;2.20;;
6739;SDS011;3407;49.882;10.920;2023-03-23T02:42:29;2.87;;;2.40;;
6739;SDS011;3407;49.882;10.920;2023-03-23T02:47:29;3.97;;;2.30;;
6739;SDS011;3407;49.882;10.920;2023-03-23T02:52:26;3.80;;;2.40;;
6739;SDS011;3407;49.882;10.920;2023-03-23T02:57:24;4.97;;;2.53;;
6739;SDS011;3407;49.882;10.920;2023-03-23T03:02:26;2.83;;;2.47;;
6739;SDS011;3407;49.882;10.920;2023-03-23T03:12:45;2.50;;;2.30;;
6739;SDS011;3407;49.882;10.920;2023-03-23T03:17:56;3.53;;;2.40;;
6739;SDS011;3407;49.882;10.920;2023-03-23T03:23:06;8.43;;;2.27;;
6739;SDS011;3407;49.882;10.920;2023-03-23T03:28:04;3.90;;;2.70;;
6739;SDS011;3407;49.882;10.920;2023-03-23T03:33:00;4.30;;;2.60;;
6739;SDS011;3407;49.882;10.920;2023-03-23T03:38:04;4.77;;;2.80;;
6739;SDS011;3407;49.882;10.920;2023-03-23T03:43:01;2.70;;;2.20;;
6739;SDS011;3407;49.882;10.920;2023-03-23T03:47:57;2.97;;;2.50;;
6739;SDS011;3407;49.882;10.920;2023-03-23T03:52:52;2.90;;;2.40;;
6739;SDS011;3407;49.882;10.920;2023-03-23T03:57:48;2.43;;;2.23;;
6739;SDS011;3407;49.882;10.920;2023-03-23T04:02:44;2.77;;;2.13;;
6739;SDS011;3407;49.882;10.920;2023-03-23T04:07:48;2.67;;;2.47;;
6739;SDS011;3407;49.882;10.920;2023-03-23T04:12:46;3.00;;;2.33;;
6739;SDS011;3407;49.882;10.920;2023-03-23T04:17:45;2.50;;;2.13;;
6739;SDS011;3407;49.882;10.920;2023-03-23T04:22:41;2.97;;;2.20;;
6739;SDS011;3407;49.882;10.920;2023-03-23T04:27:39;2.30;;;2.10;;
6739;SDS011;3407;49.882;10.920;2023-03-23T04:32:38;4.27;;;2.10;;
6739;SDS011;3407;49.882;10.920;2023-03-23T04:37:38;3.63;;;2.40;;
6739;SDS011;3407;49.882;10.920;2023-03-23T04:42:33;2.57;;;2.20;;
6739;SDS011;3407;49.882;10.920;2023-03-23T04:47:31;3.40;;;2.37;;
6739;SDS011;3407;49.882;10.920;2023-03-23T04:52:29;2.57;;;2.27;;
6739;SDS011;3407;49.882;10.920;2023-03-23T04:57:24;2.20;;;2.00;;
6739;SDS011;3407;49.882;10.920;2023-03-23T05:02:23;2.60;;;1.90;;
6739;SDS011;3407;49.882;10.920;2023-03-23T05:07:20;2.13;;;2.03;;
6739;SDS011;3407;49.882;10.920;2023-03-23T05:12:15;2.43;;;2.23;;
6739;SDS011;3407;49.882;10.920;2023-03-23T05:17:11;2.83;;;2.00;;
6739;SDS011;3407;49.882;10.920;2023-03-23T05:22:07;5.00;;;2.53;;
6739;SDS011;3407;49.882;10.920;2023-03-23T05:27:04;3.03;;;2.03;;
6739;SDS011;3407;49.882;10.920;2023-03-23T05:32:03;2.17;;;1.97;;
6739;SDS011;3407;49.882;10.920;2023-03-23T05:37:00;1.90;;;1.80;;
6739;SDS011;3407;49.882;10.920;2023-03-23T05:41:57;4.43;;;1.80;;
6739;SDS011;3407;49.882;10.920;2023-03-23T05:46:53;2.47;;;1.90;;
6739;SDS011;3407;49.882;10.920;2023-03-23T05:51:48;2.87;;;1.90;;
6739;SDS011;3407;49.882;10.920;2023-03-23T05:56:45;3.60;;;2.50;;
6739;SDS011;3407;49.882;10.920;2023-03-23T06:01:40;5.40;;;3.43;;
6739;SDS011;3407;49.882;10.920;2023-03-23T06:06:36;3.93;;;3.53;;
6739;SDS011;3407;49.882;10.920;2023-03-23T06:11:32;3.40;;;2.40;;
6739;SDS011;3407;49.882;10.920;2023-03-23T06:16:28;6.87;;;4.30;;
6739;SDS011;3407;49.882;10.920;2023-03-23T06:21:24;3.27;;;2.83;;
6739;SDS011;3407;49.882;10.920;2023-03-23T06:26:19;4.70;;;3.93;;
6739;SDS011;3407;49.882;10.920;2023-03-23T06:31:17;3.17;;;2.67;;
6739;SDS011;3407;49.882;10.920;2023-03-23T06:36:15;4.37;;;3.00;;
6739;SDS011;3407;49.882;10.920;2023-03-23T06:41:12;4.53;;;3.70;;
6739;SDS011;3407;49.882;10.920;2023-03-23T06:46:08;8.17;;;7.33;;
6739;SDS011;3407;49.882;10.920;2023-03-23T06:51:04;4.47;;;3.33;;
6739;SDS011;3407;49.882;10.920;2023-03-23T06:56:00;4.83;;;2.40;;
6739;SDS011;3407;49.882;10.920;2023-03-23T07:00:57;2.70;;;2.50;;
6739;SDS011;3407;49.882;10.920;2023-03-23T07:05:53;2.20;;;2.00;;
6739;SDS011;3407;49.882;10.920;2023-03-23T07:10:53;4.30;;;2.10;;
6739;SDS011;3407;49.882;10.920;2023-03-23T07:15:49;2.53;;;1.87;;
6739;SDS011;3407;49.882;10.920;2023-03-23T07:20:51;2.33;;;2.03;;
6739;SDS011;3407;49.882;10.920;2023-03-23T07:25:48;2.60;;;2.40;;
6739;SDS011;3407;49.882;10.920;2023-03-23T07:30:43;2.40;;;2.20;;
6739;SDS011;3407;49.882;10.920;2023-03-23T07:35:39;3.73;;;2.40;;
6739;SDS011;3407;49.882;10.920;2023-03-23T07:40:35;2.43;;;2.20;;
6739;SDS011;3407;49.882;10.920;2023-03-23T07:45:31;3.63;;;2.30;;
6739;SDS011;3407;49.882;10.920;2023-03-23T07:50:26;3.27;;;2.40;;
6739;SDS011;3407;49.882;10.920;2023-03-23T07:55:22;3.90;;;2.80;;
6739;SDS011;3407;49.882;10.920;2023-03-23T08:00:20;2.57;;;2.37;;
6739;SDS011;3407;49.882;10.920;2023-03-23T08:05:18;3.00;;;2.47;;
6739;SDS011;3407;49.882;10.920;2023-03-23T08:10:15;6.37;;;2.60;;
6739;SDS011;3407;49.882;10.920;2023-03-23T08:15:13;5.60;;;2.30;;
6739;SDS011;3407;49.882;10.920;2023-03-23T08:20:10;2.60;;;2.40;;
6739;SDS011;3407;49.882;10.920;2023-03-23T08:25:09;2.37;;;2.07;;
6739;SDS011;3407;49.882;10.920;2023-03-23T08:30:05;2.70;;;2.50;;
6739;SDS011;3407;49.882;10.920;2023-03-23T08:35:02;6.10;;;2.20;;
6739;SDS011;3407;49.882;10.920;2023-03-23T08:39:58;5.13;;;2.73;;
6739;SDS011;3407;49.882;10.920;2023-03-23T08:44:54;2.00;;;1.90;;
6739;SDS011;3407;49.882;10.920;2023-03-23T08:49:49;2.40;;;2.20;;
6739;SDS011;3407;49.882;10.920;2023-03-23T08:54:47;2.23;;;2.03;;
6739;SDS011;3407;49.882;10.920;2023-03-23T08:59:43;4.50;;;2.23;;
6739;SDS011;3407;49.882;10.920;2023-03-23T09:04:39;3.70;;;2.40;;
6739;SDS011;3407;49.882;10.920;2023-03-23T09:09:37;3.73;;;2.20;;
6739;SDS011;3407;49.882;10.920;2023-03-23T09:14:36;2.63;;;2.30;;
6739;SDS011;3407;49.882;10.920;2023-03-23T09:19:33;1.90;;;1.80;;
6739;SDS011;3407;49.882;10.920;2023-03-23T09:24:30;3.43;;;1.93;;
6739;SDS011;3407;49.882;10.920;2023-03-23T09:29:26;3.03;;;2.13;;
6739;SDS011;3407;49.882;10.920;2023-03-23T09:34:22;2.40;;;2.20;;
6739;SDS011;3407;49.882;10.920;2023-03-23T09:39:17;2.43;;;1.93;;
6739;SDS011;3407;49.882;10.920;2023-03-23T09:44:17;5.67;;;4.80;;
6739;SDS011;3407;49.882;10.920;2023-03-23T09:54:53;3.70;;;2.10;;
6739;SDS011;3407;49.882;10.920;2023-03-23T09:59:56;2.10;;;2.00;;
6739;SDS011;3407;49.882;10.920;2023-03-23T10:10:31;3.17;;;1.83;;
6739;SDS011;3407;49.882;10.920;2023-03-23T10:15:36;2.93;;;1.60;;
6739;SDS011;3407;49.882;10.920;2023-03-23T10:20:42;1.70;;;1.60;;
6739;SDS011;3407;49.882;10.920;2023-03-23T10:26:02;2.00;;;1.90;;
6739;SDS011;3407;49.882;10.920;2023-03-23T10:31:09;1.87;;;1.77;;
6739;SDS011;3407;49.882;10.920;2023-03-23T10:36:24;2.67;;;1.90;;
6739;SDS011;3407;49.882;10.920;2023-03-23T10:41:25;2.13;;;1.97;;
6739;SDS011;3407;49.882;10.920;2023-03-23T10:46:41;1.70;;;1.60;;
6739;SDS011;3407;49.882;10.920;2023-03-23T10:52:00;2.27;;;2.07;;
6739;SDS011;3407;49.882;10.920;2023-03-23T10:56:57;2.07;;;1.87;;
6739;SDS011;3407;49.882;10.920;2023-03-23T11:01:57;1.87;;;1.77;;
6739;SDS011;3407;49.882;10.920;2023-03-23T11:06:59;2.10;;;1.80;;
6739;SDS011;3407;49.882;10.920;2023-03-23T11:11:56;1.67;;;1.50;;
6739;SDS011;3407;49.882;10.920;2023-03-23T11:16:52;1.43;;;1.33;;
6739;SDS011;3407;49.882;10.920;2023-03-23T11:21:53;1.50;;;1.40;;
6739;SDS011;3407;49.882;10.920;2023-03-23T11:27:00;2.73;;;1.53;;
6739;SDS011;3407;49.882;10.920;2023-03-23T11:32:03;1.60;;;1.40;;
6739;SDS011;3407;49.882;10.920;2023-03-23T11:37:06;1.20;;;1.20;;
6739;SDS011;3407;49.882;10.920;2023-03-23T11:42:18;1.40;;;1.30;;
6739;SDS011;3407;49.882;10.920;2023-03-23T11:47:27;2.40;;;1.30;;
6739;SDS011;3407;49.882;10.920;2023-03-23T11:57:36;1.43;;;1.30;;
6739;SDS011;3407;49.882;10.920;2023-03-23T12:02:35;2.30;;;1.10;;
6739;SDS011;3407;49.882;10.920;2023-03-23T12:13:02;1.53;;;1.17;;
6739;SDS011;3407;49.882;10.920;2023-03-23T12:23:58;1.30;;;1.20;;
6739;SDS011;3407;49.882;10.920;2023-03-23T12:29:27;1.37;;;1.27;;
6739;SDS011;3407;49.882;10.920;2023-03-23T12:39:47;1.47;;;1.13;;
6739;SDS011;3407;49.882;10.920;2023-03-23T12:45:07;1.47;;;1.40;;
6739;SDS011;3407;49.882;10.920;2023-03-23T12:51:00;1.80;;;1.70;;
6739;SDS011;3407;49.882;10.920;2023-03-23T12:56:05;1.87;;;1.60;;
6739;SDS011;3407;49.882;10.920;2023-03-23T13:01:12;1.67;;;1.57;;
6739;SDS011;3407;49.882;10.920;2023-03-23T13:06:26;2.50;;;1.77;;
6739;SDS011;3407;49.882;10.920;2023-03-23T13:11:40;2.60;;;1.43;;
6739;SDS011;3407;49.882;10.920;2023-03-23T13:27:23;1.80;;;1.70;;
6739;SDS011;3407;49.882;10.920;2023-03-23T13:32:23;2.50;;;1.90;;
6739;SDS011;3407;49.882;10.920;2023-03-23T13:37:40;2.23;;;1.70;;
6739;SDS011;3407;49.882;10.920;2023-03-23T13:42:50;2.33;;;2.10;;
6739;SDS011;3407;49.882;10.920;2023-03-23T13:47:47;1.70;;;1.60;;
6739;SDS011;3407;49.882;10.920;2023-03-23T14:02:51;1.80;;;1.70;;
6739;SDS011;3407;49.882;10.920;2023-03-23T14:08:03;1.53;;;1.43;;
6739;SDS011;3407;49.882;10.920;2023-03-23T14:13:10;1.80;;;1.70;;
6739;SDS011;3407;49.882;10.920;2023-03-23T14:18:15;1.60;;;1.50;;
6739;SDS011;3407;49.882;10.920;2023-03-23T14:23:17;1.50;;;1.40;;
6739;SDS011;3407;49.882;10.920;2023-03-23T14:28:18;1.53;;;1.30;;
6739;SDS011;3407;49.882;10.920;2023-03-23T14:33:15;1.37;;;1.30;;
6739;SDS011;3407;49.882;10.920;2023-03-23T14:38:14;1.40;;;1.30;;
6739;SDS011;3407;49.882;10.920;2023-03-23T14:43:16;1.50;;;1.37;;
6739;SDS011;3407;49.882;10.920;2023-03-23T14:48:14;1.63;;;1.27;;
6739;SDS011;3407;49.882;10.920;2023-03-23T14:53:13;1.30;;;1.30;;
6739;SDS011;3407;49.882;10.920;2023-03-23T14:58:17;1.57;;;0.90;;
6739;SDS011;3407;49.882;10.920;2023-03-23T15:03:16;1.30;;;1.20;;
6739;SDS011;3407;49.882;10.920;2023-03-23T15:08:15;1.17;;;1.07;;
6739;SDS011;3407;49.882;10.920;2023-03-23T15:13:15;1.30;;;1.23;;
6739;SDS011;3407;49.882;10.920;2023-03-23T15:18:26;1.80;;;1.33;;
6739;SDS011;3407;49.882;10.920;2023-03-23T15:23:27;1.80;;;1.20;;
6739;SDS011;3407;49.882;10.920;2023-03-23T15:28:28;1.17;;;1.10;;
6739;SDS011;3407;49.882;10.920;2023-03-23T15:33:38;1.80;;;1.10;;
6739;SDS011;3407;49.882;10.920;2023-03-23T15:38:35;1.40;;;1.20;;
6739;SDS011;3407;49.882;10.920;2023-03-23T15:43:35;5.87;;;1.67;;
6739;SDS011;3407;49.882;10.920;2023-03-23T15:53:54;1.40;;;1.30;;
6739;SDS011;3407;49.882;10.920;2023-03-23T15:58:51;1.70;;;1.17;;
6739;SDS011;3407;49.882;10.920;2023-03-23T16:03:48;1.97;;;1.80;;
6739;SDS011;3407;49.882;10.920;2023-03-23T16:08:53;1.47;;;1.40;;
6739;SDS011;3407;49.882;10.920;2023-03-23T16:13:49;1.87;;;1.60;;
6739;SDS011;3407;49.882;10.920;2023-03-23T16:18:45;1.40;;;1.30;;
6739;SDS011;3407;49.882;10.920;2023-03-23T16:23:40;1.70;;;1.60;;
6739;SDS011;3407;49.882;10.920;2023-03-23T16:28:38;1.33;;;1.23;;
6739;SDS011;3407;49.882;10.920;2023-03-23T16:33:35;1.67;;;1.40;;
6739;SDS011;3407;49.882;10.920;2023-03-23T16:38:30;3.00;;;1.50;;
6739;SDS011;3407;49.882;10.920;2023-03-23T16:43:26;2.63;;;1.60;;
6739;SDS011;3407;49.882;10.920;2023-03-23T16:48:22;1.43;;;1.33;;
6739;SDS011;3407;49.882;10.920;2023-03-23T16:53:18;1.50;;;1.40;;
6739;SDS011;3407;49.882;10.920;2023-03-23T16:58:14;1.43;;;1.33;;
6739;SDS011;3407;49.882;10.920;2023-03-23T17:03:10;1.67;;;1.57;;
6739;SDS011;3407;49.882;10.920;2023-03-23T17:08:07;1.77;;;1.67;;
6739;SDS011;3407;49.882;10.920;2023-03-23T17:13:02;2.47;;;2.10;;
6739;SDS011;3407;49.882;10.920;2023-03-23T17:17:58;1.83;;;1.73;;
6739;SDS011;3407;49.882;10.920;2023-03-23T17:22:53;2.00;;;1.90;;
6739;SDS011;3407;49.882;10.920;2023-03-23T17:27:49;2.37;;;1.40;;
6739;SDS011;3407;49.882;10.920;2023-03-23T17:32:46;2.30;;;2.10;;
6739;SDS011;3407;49.882;10.920;2023-03-23T17:37:42;4.33;;;1.97;;
6739;SDS011;3407;49.882;10.920;2023-03-23T17:42:38;1.80;;;1.70;;
6739;SDS011;3407;49.882;10.920;2023-03-23T17:47:34;5.20;;;2.00;;
6739;SDS011;3407;49.882;10.920;2023-03-23T17:52:30;4.70;;;1.60;;
6739;SDS011;3407;49.882;10.920;2023-03-23T17:57:26;2.33;;;1.93;;
6739;SDS011;3407;49.882;10.920;2023-03-23T18:02:21;2.70;;;1.80;;
6739;SDS011;3407;49.882;10.920;2023-03-23T18:07:17;1.53;;;1.43;;
6739;SDS011;3407;49.882;10.920;2023-03-23T18:12:17;1.47;;;1.37;;
6739;SDS011;3407;49.882;10.920;2023-03-23T18:17:12;2.50;;;2.10;;
6739;SDS011;3407;49.882;10.920;2023-03-23T18:22:08;2.20;;;2.00;;
6739;SDS011;3407;49.882;10.920;2023-03-23T18:27:04;2.70;;;2.40;;
6739;SDS011;3407;49.882;10.920;2023-03-23T18:31:59;3.83;;;3.33;;
6739;SDS011;3407;49.882;10.920;2023-03-23T18:36:55;4.60;;;3.97;;
6739;SDS011;3407;49.882;10.920;2023-03-23T18:41:50;6.37;;;4.50;;
6739;SDS011;3407;49.882;10.920;2023-03-23T18:46:46;3.33;;;2.97;;
6739;SDS011;3407;49.882;10.920;2023-03-23T18:51:41;3.50;;;2.83;;
6739;SDS011;3407;49.882;10.920;2023-03-23T18:56:37;5.47;;;2.80;;
6739;SDS011;3407;49.882;10.920;2023-03-23T19:01:33;2.70;;;2.50;;
6739;SDS011;3407;49.882;10.920;2023-03-23T19:06:28;4.30;;;3.20;;
6739;SDS011;3407;49.882;10.920;2023-03-23T19:11:24;3.03;;;2.73;;
6739;SDS011;3407;49.882;10.920;2023-03-23T19:16:21;3.20;;;2.90;;
6739;SDS011;3407;49.882;10.920;2023-03-23T19:21:16;3.07;;;2.77;;
6739;SDS011;3407;49.882;10.920;2023-03-23T19:26:17;5.30;;;2.70;;
6739;SDS011;3407;49.882;10.920;2023-03-23T19:31:16;2.57;;;2.37;;
6739;SDS011;3407;49.882;10.920;2023-03-23T19:36:15;2.63;;;2.43;;
6739;SDS011;3407;49.882;10.920;2023-03-23T19:41:11;4.93;;;2.77;;
6739;SDS011;3407;49.882;10.920;2023-03-23T19:46:07;3.07;;;2.73;;
6739;SDS011;3407;49.882;10.920;2023-03-23T19:51:06;6.03;;;2.57;;
6739;SDS011;3407;49.882;10.920;2023-03-23T19:56:03;3.47;;;2.90;;
6739;SDS011;3407;49.882;10.920;2023-03-23T20:00:59;7.67;;;3.07;;
6739;SDS011;3407;49.882;10.920;2023-03-23T20:05:58;3.47;;;2.63;;
6739;SDS011;3407;49.882;10.920;2023-03-23T20:11:08;6.20;;;3.97;;
6739;SDS011;3407;49.882;10.920;2023-03-23T20:16:06;5.10;;;3.00;;
6739;SDS011;3407;49.882;10.920;2023-03-23T20:21:03;3.10;;;2.80;;
6739;SDS011;3407;49.882;10.920;2023-03-23T20:26:08;5.03;;;3.07;;
6739;SDS011;3407;49.882;10.920;2023-03-23T20:31:09;6.77;;;2.83;;
6739;SDS011;3407;49.882;10.920;2023-03-23T20:36:07;5.73;;;4.10;;
6739;SDS011;3407;49.882;10.920;2023-03-23T20:41:04;5.70;;;2.33;;
6739;SDS011;3407;49.882;10.920;2023-03-23T20:46:03;8.13;;;3.20;;
6739;SDS011;3407;49.882;10.920;2023-03-23T20:51:00;4.23;;;2.53;;
6739;SDS011;3407;49.882;10.920;2023-03-23T20:55:57;3.77;;;2.87;;
6739;SDS011;3407;49.882;10.920;2023-03-23T21:00:56;2.93;;;2.63;;
6739;SDS011;3407;49.882;10.920;2023-03-23T21:05:52;3.67;;;3.20;;
6739;SDS011;3407;49.882;10.920;2023-03-23T21:10:48;3.47;;;2.90;;
6739;SDS011;3407;49.882;10.920;2023-03-23T21:15:44;3.77;;;3.03;;
6739;SDS011;3407;49.882;10.920;2023-03-23T21:20:40;6.97;;;4.30;;
6739;SDS011;3407;49.882;10.920;2023-03-23T21:25:37;3.40;;;3.10;;
6739;SDS011;3407;49.882;10.920;2023-03-23T21:30:36;4.73;;;3.30;;
6739;SDS011;3407;49.882;10.920;2023-03-23T21:35:35;4.20;;;3.80;;
6739;SDS011;3407;49.882;10.920;2023-03-23T21:40:31;6.60;;;4.90;;
6739;SDS011;3407;49.882;10.920;2023-03-23T21:45:26;8.80;;;5.73;;
6739;SDS011;3407;49.882;10.920;2023-03-23T21:50:22;9.23;;;6.13;;
6739;SDS011;3407;49.882;10.920;2023-03-23T21:55:19;8.23;;;5.60;;
6739;SDS011;3407;49.882;10.920;2023-03-23T22:00:14;7.77;;;5.63;;
6739;SDS011;3407;49.882;10.920;2023-03-23T22:05:11;6.67;;;5.17;;
6739;SDS011;3407;49.882;10.920;2023-03-23T22:10:07;9.40;;;5.90;;
6739;SDS011;3407;49.882;10.920;2023-03-23T22:15:03;10.63;;;5.87;;
6739;SDS011;3407;49.882;10.920;2023-03-23T22:20:00;7.33;;;5.43;;
6739;SDS011;3407;49.882;10.920;2023-03-23T22:24:56;5.23;;;4.53;;
6739;SDS011;3407;49.882;10.920;2023-03-23T22:29:52;7.27;;;5.30;;
6739;SDS011;3407;49.882;10.920;2023-03-23T22:34:47;8.97;;;4.60;;
6739;SDS011;3407;49.882;10.920;2023-03-23T22:39:43;6.80;;;3.90;;
6739;SDS011;3407;49.882;10.920;2023-03-23T22:44:39;6.47;;;3.73;;
6739;SDS011;3407;49.882;10.920;2023-03-23T22:49:35;5.23;;;4.17;;
6739;SDS011;3407;49.882;10.920;2023-03-23T22:54:30;4.80;;;3.80;;
6739;SDS011;3407;49.882;10.920;2023-03-23T22:59:26;4.20;;;3.57;;
6739;SDS011;3407;49.882;10.920;2023-03-23T23:04:22;4.53;;;3.47;;
6739;SDS011;3407;49.882;10.920;2023-03-23T23:09:17;8.07;;;3.67;;
6739;SDS011;3407;49.882;10.920;2023-03-23T23:14:14;4.30;;;3.67;;
6739;SDS011;3407;49.882;10.920;2023-03-23T23:19:09;5.97;;;3.70;;
6739;SDS011;3407;49.882;10.920;2023-03-23T23:24:05;4.07;;;3.60;;
6739;SDS011;3407;49.882;10.920;2023-03-23T23:29:01;7.60;;;4.13;;
6739;SDS011;3407;49.882;10.920;2023-03-23T23:33:58;4.53;;;3.63;;
6739;SDS011;3407;49.882;10.920;2023-03-23T23:38:55;6.37;;;3.50;;
6739;SDS011;3407;49.882;10.920;2023-03-23T23:43:51;3.97;;;3.47;;
6739;SDS011;3407;49.882;10.920;2023-03-23T23:48:47;4.43;;;4.00;;
6739;SDS011;3407;49.882;10.920;2023-03-23T23:53:43;3.43;;;2.83;;
6739;SDS011;3407;49.882;10.920;2023-03-23T23:58:40;4.77;;;3.37;;
